Time;durP1;ratioP1;P1;durP2;ratioP2;P2;SDS_P1;SDS_P2;PMS_P1;PMS_P2;Temp;Humidity;BMP_temperature;BMP_pressure;BME280_temperature;BME280_humidity;BME280_pressure;Samples;Min_cycle;Max_cycle;Signal;HPM_P1;HPM_P2
2022/04/04 00:00:41;;;;;;;12.65;4.72;;;;;;;3.94;50.58;99970.63;5027221;28;20038;-59
2022/04/04 00:03:07;;;;;;;14.55;5.35;;;;;;;4.04;50.04;99971.50;5029198;28;20037;-59
2022/04/04 00:05:33;;;;;;;13.93;5.03;;;;;;;4.05;50.18;99960.22;5035560;28;20038;-59
2022/04/04 00:07:58;;;;;;;16.10;5.32;;;;;;;4.00;50.37;99971.53;5027740;28;20034;-59
2022/04/04 00:10:24;;;;;;;11.07;4.53;;;;;;;3.93;50.55;99958.53;5015621;28;20053;-60
2022/04/04 00:12:49;;;;;;;9.90;3.95;;;;;;;3.85;50.68;99959.41;5026632;28;20084;-60
2022/04/04 00:15:15;;;;;;;7.35;3.47;;;;;;;3.84;50.47;99957.69;5028643;28;20037;-60
2022/04/04 00:17:40;;;;;;;6.63;3.28;;;;;;;3.74;51.30;99958.53;5039981;28;20417;-59
2022/04/04 00:20:08;;;;;;;7.25;3.75;;;;;;;3.88;51.04;99956.81;5045153;28;20038;-59
2022/04/04 00:22:34;;;;;;;5.85;2.90;;;;;;;3.90;51.62;99965.44;5034282;28;20033;-60
2022/04/04 00:25:00;;;;;;;7.60;3.15;;;;;;;3.93;52.35;99955.91;5035128;28;20032;-59
2022/04/04 00:27:25;;;;;;;6.20;3.17;;;;;;;3.94;52.67;99946.38;5031110;28;20030;-59
2022/04/04 00:29:51;;;;;;;5.43;2.47;;;;;;;4.12;51.46;99938.56;5015722;28;20038;-59
2022/04/04 00:32:16;;;;;;;5.80;3.25;;;;;;;4.15;52.26;99933.34;5030523;28;20090;-61
2022/04/04 00:34:42;;;;;;;6.95;3.45;;;;;;;4.07;53.33;99934.22;5033219;28;20072;-61
2022/04/04 00:37:07;;;;;;;6.47;3.05;;;;;;;4.08;53.36;99931.63;5036714;28;20042;-59
2022/04/04 00:39:33;;;;;;;7.00;3.08;;;;;;;3.98;53.75;99935.13;5041682;28;20131;-61
2022/04/04 00:41:58;;;;;;;4.75;2.65;;;;;;;3.85;54.39;99928.22;5033407;28;20048;-62
2022/04/04 00:44:25;;;;;;;5.65;3.08;;;;;;;3.68;55.73;99918.72;5034355;28;20066;-59
2022/04/04 00:46:50;;;;;;;5.82;2.90;;;;;;;3.48;56.26;99920.47;5033165;28;20033;-62
2022/04/04 00:49:16;;;;;;;6.43;3.20;;;;;;;3.35;57.69;99918.72;5040796;28;20037;-59
2022/04/04 00:51:41;;;;;;;5.05;2.70;;;;;;;3.31;57.37;99911.78;5032439;28;20045;-58
2022/04/04 00:54:07;;;;;;;8.40;3.00;;;;;;;3.20;58.09;99906.59;5016893;28;20119;-59
2022/04/04 00:56:34;;;;;;;5.22;3.15;;;;;;;3.21;57.98;99906.59;5045301;28;20041;-58
2022/04/04 00:59:00;;;;;;;8.68;3.45;;;;;;;3.14;59.01;99904.00;5034431;28;20052;-59
2022/04/04 01:01:26;;;;;;;9.98;3.83;;;;;;;3.10;59.14;99902.25;5033201;28;20083;-58
2022/04/04 01:03:51;;;;;;;5.72;2.92;;;;;;;3.09;59.76;99896.19;5025052;28;20486;-61
2022/04/04 01:06:17;;;;;;;5.63;2.88;;;;;;;3.09;59.15;99891.00;5042027;28;20044;-59
2022/04/04 01:08:44;;;;;;;5.47;2.95;;;;;;;3.15;59.37;99892.72;5032700;28;20063;-59
2022/04/04 01:11:10;;;;;;;6.57;3.58;;;;;;;3.06;60.52;99887.53;5027533;28;20492;-58
2022/04/04 01:13:35;;;;;;;5.78;3.20;;;;;;;3.06;60.98;99882.34;5020095;28;20113;-58
2022/04/04 01:16:01;;;;;;;5.22;2.67;;;;;;;3.20;59.95;99885.84;5023561;28;20374;-59
2022/04/04 01:18:26;;;;;;;7.72;3.75;;;;;;;3.31;59.70;99881.50;5014706;28;20037;-61
2022/04/04 01:20:52;;;;;;;5.75;3.10;;;;;;;3.42;59.80;99878.88;5021752;28;20052;-61
2022/04/04 01:23:23;;;;;;;6.72;3.45;;;;;;;3.44;61.48;99879.78;5018562;28;20050;-58
2022/04/04 01:25:48;;;;;;;7.15;3.95;;;;;;;3.37;62.41;99873.69;5023108;28;20030;-60
2022/04/04 01:28:14;;;;;;;13.13;4.60;;;;;;;3.53;61.34;99874.56;5022865;28;20034;-61
2022/04/04 01:30:40;;;;;;;6.55;3.72;;;;;;;3.66;61.21;99878.84;5018919;28;20056;-61
2022/04/04 01:33:06;;;;;;;7.05;3.40;;;;;;;3.64;61.37;99878.00;5023879;28;20045;-61
2022/04/04 01:35:32;;;;;;;9.38;3.90;;;;;;;3.71;61.19;99865.88;5022763;28;20115;-61
2022/04/04 01:37:58;;;;;;;10.20;3.95;;;;;;;3.57;62.45;99865.88;5026633;28;20057;-61
2022/04/04 01:40:24;;;;;;;7.18;3.70;;;;;;;3.57;64.71;99863.28;5016826;28;20056;-61
2022/04/04 01:42:53;;;;;;;7.85;3.55;;;;;;;3.71;63.23;99863.28;5034066;28;20045;-61
2022/04/04 01:46:23;;;;;;;6.45;3.30;;;;;;;3.69;65.44;99857.22;5028995;28;20032;-61
2022/04/04 01:48:05;;;;;;;8.07;3.90;;;;;;;3.56;65.95;99845.13;5020312;28;20065;-58
2022/04/04 01:50:31;;;;;;;6.65;3.80;;;;;;;3.54;67.12;99849.44;5029000;28;20393;-61
2022/04/04 01:53:25;;;;;;;6.75;3.78;;;;;;;3.61;66.41;99841.63;5029397;28;20037;-61
2022/04/04 01:55:44;;;;;;;7.07;3.58;;;;;;;3.49;68.17;99840.78;5013095;28;20409;-61
2022/04/04 01:58:09;;;;;;;7.28;3.92;;;;;;;3.52;67.58;99833.00;5025349;28;20134;-60
2022/04/04 02:00:35;;;;;;;7.22;3.83;;;;;;;3.56;67.73;99829.53;5023396;28;20042;-61
2022/04/04 02:03:00;;;;;;;9.55;3.90;;;;;;;3.64;67.59;99827.78;5015842;28;20111;-62
2022/04/04 02:05:25;;;;;;;7.00;3.83;;;;;;;3.65;67.17;99824.31;5014369;28;20041;-61
2022/04/04 02:07:51;;;;;;;6.57;3.72;;;;;;;3.55;68.37;99823.47;5021053;28;20115;-61
2022/04/04 02:10:16;;;;;;;5.45;3.60;;;;;;;3.66;67.49;99813.91;5031894;28;20042;-61
2022/04/04 02:12:42;;;;;;;7.72;3.75;;;;;;;3.73;67.34;99811.31;5024988;28;20088;-61
2022/04/04 02:15:07;;;;;;;4.55;3.22;;;;;;;3.81;67.09;99801.75;5016497;28;20041;-61
2022/04/04 02:17:33;;;;;;;5.70;3.75;;;;;;;3.88;66.92;99808.66;5031789;28;20044;-61
2022/04/04 02:19:58;;;;;;;4.80;3.60;;;;;;;3.89;66.48;99811.25;5020693;28;20474;-61
2022/04/04 02:22:24;;;;;;;7.47;3.95;;;;;;;3.91;66.81;99803.41;5013764;28;20041;-61
2022/04/04 02:24:49;;;;;;;5.97;3.90;;;;;;;3.93;66.78;99799.97;5013836;28;20141;-61
2022/04/04 02:27:14;;;;;;;7.97;4.22;;;;;;;3.86;67.20;99792.19;5031061;28;20026;-62
2022/04/04 02:29:40;;;;;;;6.30;4.43;;;;;;;3.98;66.95;99789.53;5030326;28;20025;-61
2022/04/04 02:32:06;;;;;;;6.05;4.03;;;;;;;3.97;67.67;99794.75;5016269;28;20041;-59
2022/04/04 02:34:31;;;;;;;6.05;4.07;;;;;;;3.97;67.13;99782.63;5025067;28;20116;-59
2022/04/04 02:36:57;;;;;;;7.95;4.10;;;;;;;3.95;67.38;99792.19;5020142;28;20114;-59
2022/04/04 02:39:22;;;;;;;7.85;4.20;;;;;;;3.92;67.86;99786.97;5021945;28;20501;-59
2022/04/04 02:41:47;;;;;;;5.88;4.20;;;;;;;4.04;67.50;99779.13;5013707;28;20387;-59
2022/04/04 02:44:13;;;;;;;7.82;4.10;;;;;;;4.06;67.57;99779.09;5013640;28;20503;-59
2022/04/04 02:46:38;;;;;;;8.52;4.35;;;;;;;3.92;69.61;99787.84;5020706;28;20037;-60
2022/04/04 02:49:04;;;;;;;5.93;3.80;;;;;;;3.91;70.17;99774.84;5013364;28;20067;-60
2022/04/04 02:51:29;;;;;;;7.00;4.30;;;;;;;3.86;69.89;99777.44;5024890;28;20146;-60
2022/04/04 02:53:55;;;;;;;7.18;4.72;;;;;;;3.85;71.09;99774.88;5030924;28;20061;-60
2022/04/04 02:56:29;;;;;;;6.53;4.30;;;;;;;3.77;71.09;99774.03;5027930;28;20394;-60
2022/04/04 02:58:55;;;;;;;6.03;3.90;;;;;;;3.81;70.56;99775.75;5022710;28;20061;-59
2022/04/04 03:01:22;;;;;;;5.32;3.95;;;;;;;3.83;70.49;99766.19;5020349;28;20386;-60
2022/04/04 03:03:47;;;;;;;7.00;4.50;;;;;;;3.65;71.61;99752.41;5017409;28;20038;-59
2022/04/04 03:06:14;;;;;;;6.32;4.30;;;;;;;3.67;71.16;99750.69;5027553;28;20041;-60
2022/04/04 03:08:39;;;;;;;7.00;4.32;;;;;;;3.68;71.71;99757.63;5019921;28;20124;-59
2022/04/04 03:11:04;;;;;;;7.72;4.05;;;;;;;3.69;71.76;99750.69;5017929;28;20161;-59
2022/04/04 03:13:30;;;;;;;7.35;4.65;;;;;;;3.67;73.22;99755.91;5016763;28;20386;-60
2022/04/04 03:15:55;;;;;;;6.40;4.53;;;;;;;3.65;72.32;99748.97;5029275;28;20037;-60
2022/04/04 03:18:21;;;;;;;7.43;4.20;;;;;;;3.63;72.32;99754.19;5031291;28;20108;-60
2022/04/04 03:20:46;;;;;;;6.18;4.20;;;;;;;3.57;72.71;99742.94;5034445;28;20038;-60
2022/04/04 03:23:12;;;;;;;6.35;4.28;;;;;;;3.30;75.03;99739.53;5035935;28;20130;-60
2022/04/04 03:25:38;;;;;;;8.35;4.32;;;;;;;3.33;73.96;99734.34;5035817;28;20041;-60
2022/04/04 03:28:03;;;;;;;7.05;4.32;;;;;;;3.35;73.88;99734.31;5022807;28;20056;-60
2022/04/04 03:30:29;;;;;;;6.90;4.43;;;;;;;3.39;73.73;99728.25;5034720;28;20469;-60
2022/04/04 03:32:59;;;;;;;7.57;4.47;;;;;;;3.33;74.18;99720.50;5032400;28;20079;-60
2022/04/04 03:35:29;;;;;;;8.35;4.15;;;;;;;3.43;73.27;99723.06;5020357;28;20045;-60
2022/04/04 03:37:57;;;;;;;7.55;4.00;;;;;;;3.45;73.53;99717.88;5017401;28;20397;-60
2022/04/04 03:40:23;;;;;;;13.40;4.50;;;;;;;3.39;74.22;99717.88;5030748;28;20044;-60
2022/04/04 03:42:51;;;;;;;6.90;4.35;;;;;;;3.38;74.20;99717.00;5016082;28;20121;-60
2022/04/04 03:45:19;;;;;;;9.75;4.70;;;;;;;3.33;74.87;99718.75;5019145;28;20033;-60
2022/04/04 03:47:45;;;;;;;7.72;4.25;;;;;;;3.44;73.58;99711.81;5017319;28;20044;-58
2022/04/04 03:50:12;;;;;;;8.23;5.05;;;;;;;3.48;73.43;99712.66;5018074;28;20034;-58
2022/04/04 03:52:42;;;;;;;7.32;4.43;;;;;;;3.44;73.99;99710.94;5018700;28;20064;-58
2022/04/04 03:55:09;;;;;;;7.95;4.70;;;;;;;3.51;73.82;99701.38;5024868;28;20037;-59
2022/04/04 03:57:35;;;;;;;9.23;5.38;;;;;;;3.54;73.59;99706.56;5034244;28;20029;-58
2022/04/04 04:00:02;;;;;;;9.25;5.45;;;;;;;3.57;73.79;99707.44;5035070;28;20064;-58
2022/04/04 04:02:27;;;;;;;12.25;6.72;;;;;;;3.57;73.97;99701.38;5016129;28;20041;-58
2022/04/04 04:04:52;;;;;;;11.90;7.00;;;;;;;3.62;74.54;99699.59;5017934;28;20038;-58
2022/04/04 04:07:24;;;;;;;13.02;6.65;;;;;;;3.67;73.49;99697.84;5016729;28;20034;-58
2022/04/04 04:09:49;;;;;;;9.90;5.63;;;;;;;3.68;73.77;99697.00;5025238;28;20389;-58
2022/04/04 04:12:15;;;;;;;9.20;5.60;;;;;;;3.63;74.37;99690.94;5028375;28;20040;-58
2022/04/04 04:14:41;;;;;;;8.00;5.00;;;;;;;3.69;73.60;99680.53;5018477;28;20041;-58
2022/04/04 04:17:08;;;;;;;7.53;4.97;;;;;;;3.72;73.56;99672.72;5026063;28;20042;-58
2022/04/04 04:22:19;;;;;;;7.32;4.03;;;;;;;3.76;73.45;99671.84;5022445;28;20529;-58
2022/04/04 04:24:45;;;;;;;7.80;3.58;;;;;;;3.78;73.68;99666.63;5021856;28;20037;-58
2022/04/04 04:27:11;;;;;;;7.35;3.47;;;;;;;3.86;72.97;99667.44;5015853;28;20037;-58
2022/04/04 04:29:36;;;;;;;8.52;4.22;;;;;;;3.82;73.72;99661.41;5025532;28;20187;-58
2022/04/04 04:32:02;;;;;;;6.40;3.90;;;;;;;3.91;73.18;99658.75;5026165;28;20037;-58
2022/04/04 04:34:28;;;;;;;8.98;4.53;;;;;;;4.06;72.62;99662.97;5016900;28;20038;-58
2022/04/04 04:36:53;;;;;;;10.43;5.95;;;;;;;4.05;73.39;99668.19;5015370;28;20022;-58
2022/04/04 04:39:18;;;;;;;9.15;6.07;;;;;;;4.09;72.82;99660.34;5026790;28;20410;-58
2022/04/04 04:41:45;;;;;;;8.35;5.18;;;;;;;4.22;72.30;99650.72;5028970;28;20038;-59
2022/04/04 04:44:11;;;;;;;7.80;5.00;;;;;;;4.27;71.99;99648.09;5019123;28;20056;-58
2022/04/04 04:46:36;;;;;;;7.82;4.88;;;;;;;4.21;73.30;99659.41;5031125;28;20084;-58
2022/04/04 04:49:02;;;;;;;7.90;5.22;;;;;;;4.32;72.73;99651.53;5022682;28;20164;-58
2022/04/04 04:51:27;;;;;;;8.95;4.88;;;;;;;4.47;71.77;99648.81;5022203;28;20033;-59
2022/04/04 04:53:53;;;;;;;7.07;4.72;;;;;;;4.52;72.09;99654.84;5017889;28;20037;-58
2022/04/04 04:56:18;;;;;;;8.55;6.03;;;;;;;4.53;72.08;99653.09;5014942;28;20484;-58
2022/04/04 04:58:44;;;;;;;7.40;4.95;;;;;;;4.65;71.37;99650.38;5034538;28;20034;-59
2022/04/04 05:01:09;;;;;;;7.38;4.85;;;;;;;4.61;72.20;99644.34;5021057;28;20129;-59
2022/04/04 05:03:34;;;;;;;12.63;5.20;;;;;;;4.59;72.09;99646.09;5024204;28;20030;-59
2022/04/04 05:06:00;;;;;;;9.38;5.60;;;;;;;4.60;72.25;99647.81;5015193;28;20062;-59
2022/04/04 05:08:25;;;;;;;9.57;6.28;;;;;;;4.77;71.72;99639.00;5017220;28;20080;-59
2022/04/04 05:10:52;;;;;;;10.10;6.40;;;;;;;4.76;72.04;99632.94;5020842;28;20041;-59
2022/04/04 05:13:18;;;;;;;9.88;6.03;;;;;;;4.85;71.16;99637.19;5024983;28;20037;-58
2022/04/04 05:15:44;;;;;;;12.95;5.97;;;;;;;4.96;71.02;99637.06;5023096;28;20553;-59
2022/04/04 05:18:09;;;;;;;11.82;6.20;;;;;;;4.95;71.13;99628.41;5019841;28;20117;-59
2022/04/04 05:20:35;;;;;;;10.70;4.90;;;;;;;5.12;70.76;99636.88;5021609;28;20112;-59
2022/04/04 05:23:00;;;;;;;8.13;5.20;;;;;;;5.09;70.94;99639.50;5019719;28;20052;-59
2022/04/04 05:25:26;;;;;;;13.80;7.40;;;;;;;5.13;71.07;99627.31;5035719;28;20087;-59
2022/04/04 05:27:52;;;;;;;26.40;13.32;;;;;;;5.13;70.91;99637.75;5024335;28;20062;-59
2022/04/04 05:30:18;;;;;;;42.47;15.85;;;;;;;5.17;71.26;99635.06;5017195;28;20092;-58
2022/04/04 05:32:44;;;;;;;53.75;19.58;;;;;;;5.22;71.20;99629.81;5022748;28;20048;-59
2022/04/04 05:35:15;;;;;;;24.23;9.95;;;;;;;5.22;71.15;99636.75;5024229;28;20037;-59
2022/04/04 05:37:41;;;;;;;33.35;14.32;;;;;;;5.32;70.83;99631.44;5022869;28;20036;-60
2022/04/04 05:40:07;;;;;;;18.42;13.18;;;;;;;5.26;71.51;99643.66;5017039;28;20046;-59
2022/04/04 05:42:34;;;;;;;19.00;12.68;;;;;;;5.42;70.86;99634.78;5015100;28;20038;-59
2022/04/04 05:44:59;;;;;;;11.55;7.25;;;;;;;5.38;70.95;99631.34;5031024;28;20209;-59
2022/04/04 05:47:26;;;;;;;13.25;9.85;;;;;;;5.40;71.05;99636.56;5017024;28;20121;-59
2022/04/04 05:49:52;;;;;;;15.77;11.82;;;;;;;5.46;70.49;99635.59;5023884;28;20034;-60
2022/04/04 05:52:20;;;;;;;19.20;15.32;;;;;;;5.56;70.37;99624.19;5015720;28;20465;-61
2022/04/04 05:54:57;;;;;;;12.82;9.65;;;;;;;5.55;70.46;99625.09;5017409;28;20042;-58
2022/04/04 05:57:31;;;;;;;8.65;6.90;;;;;;;5.51;70.83;99637.28;5013755;28;21450;-59
2022/04/04 05:59:57;;;;;;;10.68;5.68;;;;;;;5.39;71.25;99625.28;5015388;28;20033;-58
2022/04/04 06:02:24;;;;;;;9.50;6.20;;;;;;;5.47;70.82;99627.78;5017227;28;20044;-60
2022/04/04 06:04:50;;;;;;;8.13;4.60;;;;;;;5.35;71.40;99617.53;5027156;28;20508;-58
2022/04/04 06:07:17;;;;;;;11.23;9.07;;;;;;;5.22;72.01;99621.13;5016908;28;20496;-58
2022/04/04 06:09:42;;;;;;;10.70;6.53;;;;;;;5.39;71.42;99619.22;5025360;28;20045;-58
2022/04/04 06:12:08;;;;;;;10.45;7.25;;;;;;;5.40;71.23;99632.19;5027112;28;20029;-58
2022/04/04 06:14:34;;;;;;;9.50;7.20;;;;;;;5.44;71.52;99622.59;5020293;28;20033;-58
2022/04/04 06:17:01;;;;;;;6.78;4.75;;;;;;;5.57;71.16;99625.91;5021457;28;20038;-58
2022/04/04 06:19:28;;;;;;;7.10;5.07;;;;;;;5.62;71.40;99637.13;5030456;28;20108;-59
2022/04/04 06:21:54;;;;;;;6.90;4.45;;;;;;;5.75;70.19;99623.06;5030862;28;20930;-58
2022/04/04 06:24:20;;;;;;;7.25;4.85;;;;;;;5.75;70.31;99611.78;5024073;28;20048;-59
2022/04/04 06:26:46;;;;;;;7.63;4.28;;;;;;;5.83;69.66;99615.13;5016459;28;20038;-59
2022/04/04 06:29:12;;;;;;;6.35;4.28;;;;;;;5.65;70.85;99619.69;5015543;28;20033;-60
2022/04/04 06:31:38;;;;;;;7.00;4.93;;;;;;;5.67;70.50;99604.91;5027064;28;20026;-58
2022/04/04 06:34:04;;;;;;;6.38;4.32;;;;;;;5.50;71.27;99611.22;5012189;28;20045;-59
2022/04/04 06:36:31;;;;;;;8.88;3.72;;;;;;;5.66;70.68;99613.63;5027617;28;20473;-59
2022/04/04 06:38:57;;;;;;;5.22;4.15;;;;;;;5.53;71.90;99611.19;5020427;28;20050;-59
2022/04/04 06:41:23;;;;;;;7.45;4.57;;;;;;;5.67;71.02;99604.06;5027410;28;20045;-59
2022/04/04 06:43:50;;;;;;;6.32;4.68;;;;;;;5.49;71.95;99604.31;5031909;28;20029;-58
2022/04/04 06:46:16;;;;;;;6.57;4.43;;;;;;;5.71;71.17;99604.88;5030416;28;20618;-59
2022/04/04 06:48:42;;;;;;;5.72;3.90;;;;;;;5.52;72.48;99593.84;5025008;28;20041;-59
2022/04/04 06:51:09;;;;;;;5.15;4.30;;;;;;;5.46;71.97;99593.91;5040082;28;20043;-59
2022/04/04 06:53:34;;;;;;;6.95;4.80;;;;;;;5.42;72.85;99599.16;5040639;28;20476;-60
2022/04/04 06:56:00;;;;;;;6.80;5.40;;;;;;;5.64;72.43;99604.09;5043689;28;20041;-59
2022/04/04 06:58:26;;;;;;;5.70;4.20;;;;;;;5.68;72.22;99596.22;5028683;28;20041;-59
2022/04/04 07:00:52;;;;;;;5.85;3.72;;;;;;;5.97;71.24;99587.13;5029256;28;20541;-59
2022/04/04 07:03:17;;;;;;;15.95;10.90;;;;;;;6.04;70.88;99593.13;5020205;28;20041;-60
2022/04/04 07:05:43;;;;;;;14.27;10.52;;;;;;;6.09;70.92;99596.50;5026356;28;20112;-59
2022/04/04 07:08:10;;;;;;;14.13;8.45;;;;;;;6.08;71.02;99587.81;5021322;28;20026;-58
2022/04/04 07:10:36;;;;;;;8.02;6.45;;;;;;;6.39;69.68;99589.94;5032388;28;20453;-60
2022/04/04 07:13:05;;;;;;;8.95;6.65;;;;;;;6.70;68.56;99585.00;5027752;28;20136;-59
2022/04/04 07:15:30;;;;;;;10.23;7.50;;;;;;;6.69;68.70;99587.66;5022446;28;20053;-59
2022/04/04 07:17:56;;;;;;;6.53;4.88;;;;;;;7.03;67.62;99578.28;5033488;28;20041;-59
2022/04/04 07:20:21;;;;;;;9.55;5.45;;;;;;;7.12;66.94;99569.41;5028734;28;20038;-60
2022/04/04 07:22:47;;;;;;;9.07;6.32;;;;;;;7.19;66.85;99562.31;5021811;28;20049;-59
2022/04/04 07:25:14;;;;;;;8.32;6.15;;;;;;;7.03;66.87;99561.75;5033402;28;20073;-59
2022/04/04 07:27:41;;;;;;;8.98;5.20;;;;;;;7.03;66.93;99570.47;5029111;28;20117;-59
2022/04/04 07:30:12;;;;;;;6.90;4.45;;;;;;;7.24;66.16;99550.84;5026988;28;20057;-59
2022/04/04 07:32:38;;;;;;;8.20;5.00;;;;;;;7.24;66.02;99565.69;5025835;28;20029;-59
2022/04/04 07:35:05;;;;;;;8.40;4.90;;;;;;;7.36;65.66;99558.44;5029865;28;20033;-59
2022/04/04 07:37:31;;;;;;;7.43;4.82;;;;;;;7.23;65.58;99566.56;5023947;28;20037;-59
2022/04/04 07:39:58;;;;;;;7.40;5.05;;;;;;;7.18;65.59;99553.59;5026007;28;20057;-59
2022/04/04 07:42:23;;;;;;;8.40;5.65;;;;;;;6.93;66.03;99561.06;5023371;28;20612;-59
2022/04/04 07:44:49;;;;;;;8.02;5.30;;;;;;;6.60;67.02;99552.13;5027838;28;20116;-59
2022/04/04 07:47:14;;;;;;;6.15;4.18;;;;;;;6.69;66.62;99548.50;5017749;28;20034;-60
2022/04/04 07:49:40;;;;;;;7.15;5.43;;;;;;;6.43;66.70;99549.84;5034251;28;20401;-59
2022/04/04 07:52:05;;;;;;;6.63;4.57;;;;;;;6.55;66.59;99547.00;5034071;28;20473;-59
2022/04/04 07:54:31;;;;;;;11.73;7.55;;;;;;;6.57;66.58;99547.81;5025762;28;20032;-59
2022/04/04 07:56:56;;;;;;;8.70;5.18;;;;;;;6.44;67.19;99553.31;5019072;28;20037;-59
2022/04/04 07:59:23;;;;;;;7.47;4.68;;;;;;;6.45;66.95;99557.63;5031049;28;20689;-59
2022/04/04 08:01:48;;;;;;;9.23;4.65;;;;;;;6.48;66.54;99548.00;5034995;28;20037;-59
2022/04/04 08:04:14;;;;;;;9.55;5.53;;;;;;;6.62;66.24;99546.00;5032891;28;20144;-59
2022/04/04 08:06:40;;;;;;;8.52;5.70;;;;;;;6.73;66.16;99543.19;5027469;28;20044;-59
2022/04/04 08:09:05;;;;;;;7.95;4.90;;;;;;;6.84;65.37;99535.16;5027085;28;20034;-58
2022/04/04 08:11:30;;;;;;;7.63;4.68;;;;;;;7.33;64.28;99547.19;5020136;28;20061;-59
2022/04/04 08:13:56;;;;;;;7.25;5.10;;;;;;;7.42;63.77;99539.16;5024857;28;20110;-59
2022/04/04 08:16:25;;;;;;;6.88;4.82;;;;;;;7.69;63.07;99529.81;5031406;28;20038;-59
2022/04/04 08:18:51;;;;;;;15.23;6.95;;;;;;;7.89;62.19;99530.19;5023194;28;20145;-59
2022/04/04 08:21:17;;;;;;;22.00;12.70;;;;;;;8.26;61.35;99523.19;5020124;28;20038;-59
2022/04/04 08:23:43;;;;;;;20.42;11.55;;;;;;;8.38;61.08;99518.53;5031463;28;20397;-59
2022/04/04 08:26:08;;;;;;;17.88;10.32;;;;;;;8.37;60.90;99527.25;5051648;28;20115;-59
2022/04/04 08:28:34;;;;;;;22.15;18.88;;;;;;;8.49;60.35;99520.84;5032373;28;20036;-59
2022/04/04 08:30:59;;;;;;;29.40;16.95;;;;;;;8.25;60.75;99511.00;5028288;28;20523;-59
2022/04/04 08:33:25;;;;;;;46.47;23.63;;;;;;;8.32;60.51;99502.09;5022914;28;20045;-59
2022/04/04 08:35:53;;;;;;;13.60;7.53;;;;;;;8.19;60.51;99508.56;5022592;28;20095;-59
2022/04/04 08:38:20;;;;;;;18.08;11.15;;;;;;;8.18;60.02;99512.94;5019355;28;20123;-59
2022/04/04 08:40:48;;;;;;;39.30;26.40;;;;;;;8.26;60.13;99504.84;5027824;28;20414;-59
2022/04/04 08:43:16;;;;;;;11.75;7.15;;;;;;;8.53;59.30;99490.22;5018066;28;20036;-59
2022/04/04 08:45:43;;;;;;;54.72;33.42;;;;;;;9.02;58.31;99489.69;5020249;28;20034;-59
2022/04/04 08:48:09;;;;;;;59.50;33.95;;;;;;;9.06;57.66;99493.94;5015945;28;20029;-59
2022/04/04 08:50:37;;;;;;;41.95;22.52;;;;;;;8.78;57.93;99486.03;5019510;28;20029;-59
2022/04/04 08:53:04;;;;;;;41.17;28.75;;;;;;;8.95;57.79;99482.06;5022886;28;20049;-59
2022/04/04 08:55:30;;;;;;;13.88;10.38;;;;;;;8.98;57.25;99476.72;5032247;28;20033;-59
2022/04/04 08:57:56;;;;;;;8.38;4.63;;;;;;;8.90;57.33;99458.63;5021299;28;20048;-59
2022/04/04 09:00:22;;;;;;;5.72;2.90;;;;;;;9.01;56.77;99469.63;5022355;28;20385;-59
2022/04/04 09:02:57;;;;;;;6.80;3.78;;;;;;;8.93;56.91;99458.50;5023527;28;20026;-59
2022/04/04 09:05:22;;;;;;;8.30;6.20;;;;;;;9.13;56.66;99450.91;5024197;28;20033;-59
2022/04/04 09:08:05;;;;;;;6.05;3.63;;;;;;;8.82;56.70;99443.13;5021749;28;20040;-59
2022/04/04 09:10:36;;;;;;;7.00;4.57;;;;;;;8.82;56.26;99444.88;5014979;28;20033;-59
2022/04/04 09:13:07;;;;;;;9.73;5.88;;;;;;;9.35;56.04;99426.66;5014731;28;20080;-59
2022/04/04 09:15:59;;;;;;;9.43;5.95;;;;;;;9.67;54.89;99424.75;5017250;28;20036;-59
2022/04/04 09:18:37;;;;;;;6.53;4.07;;;;;;;9.94;53.50;99423.84;5032287;28;20479;-59
2022/04/04 09:21:04;;;;;;;6.65;4.00;;;;;;;10.12;53.65;99417.09;5014392;28;20109;-59
2022/04/04 09:23:34;;;;;;;8.10;4.63;;;;;;;10.30;52.06;99426.97;5022740;28;20073;-59
2022/04/04 09:26:01;;;;;;;7.50;5.35;;;;;;;10.09;52.21;99411.94;5026093;28;20838;-59
2022/04/04 09:28:27;;;;;;;11.93;4.70;;;;;;;10.00;52.41;99410.50;5026805;28;20579;-59
2022/04/04 09:31:08;;;;;;;7.50;4.35;;;;;;;10.25;51.01;99407.91;5019563;28;20048;-59
2022/04/04 09:33:38;;;;;;;6.53;3.80;;;;;;;10.05;50.19;99421.72;5024348;28;20058;-59
2022/04/04 09:36:05;;;;;;;7.95;5.05;;;;;;;10.14;51.13;99393.44;5014168;28;20382;-58
2022/04/04 09:38:33;;;;;;;6.72;4.80;;;;;;;10.24;50.38;99387.78;5024043;28;20123;-57
2022/04/04 09:41:24;;;;;;;6.95;3.65;;;;;;;10.03;49.93;99389.41;5023067;28;20049;-59
2022/04/04 09:43:56;;;;;;;6.80;2.55;;;;;;;10.24;49.67;99376.41;5025013;28;20059;-58
2022/04/04 09:46:22;;;;;;;6.05;2.75;;;;;;;10.30;48.62;99374.47;5033274;28;20041;-59
2022/04/04 09:49:20;;;;;;;4.60;2.80;;;;;;;10.57;47.40;99377.84;5033840;28;20385;-58
2022/04/04 09:51:51;;;;;;;4.97;2.38;;;;;;;10.64;46.06;99372.34;5032698;28;20052;-59
2022/04/04 09:54:23;;;;;;;4.60;2.15;;;;;;;10.74;45.45;99358.81;5033822;28;20025;-59
2022/04/04 09:56:50;;;;;;;4.57;2.00;;;;;;;10.82;45.02;99355.91;5033417;28;20057;-59
2022/04/04 09:59:17;;;;;;;3.60;2.42;;;;;;;10.84;45.35;99359.31;5031479;28;20021;-58
2022/04/04 10:01:45;;;;;;;4.22;1.83;;;;;;;10.58;44.70;99362.94;5024888;28;20487;-59
2022/04/04 10:04:14;;;;;;;4.07;1.75;;;;;;;10.50;44.63;99354.50;5031918;28;20480;-58
2022/04/04 10:06:42;;;;;;;6.03;1.77;;;;;;;10.52;44.37;99347.41;5033486;28;20033;-59
2022/04/04 10:09:08;;;;;;;17.88;13.02;;;;;;;10.41;43.89;99333.81;5033271;28;20064;-58
2022/04/04 10:11:38;;;;;;;8.80;5.95;;;;;;;10.70;43.45;99335.34;5033337;28;20033;-58
2022/04/04 10:14:04;;;;;;;6.18;3.67;;;;;;;10.56;43.24;99317.47;5033386;28;20166;-58
2022/04/04 10:16:32;;;;;;;12.68;11.02;;;;;;;10.48;43.22;99325.66;5032590;28;20040;-59
2022/04/04 10:18:58;;;;;;;8.65;2.88;;;;;;;11.00;42.93;99323.63;5033528;28;20385;-59
2022/04/04 10:21:26;;;;;;;5.43;1.92;;;;;;;11.20;42.65;99314.06;5033347;28;20121;-58
2022/04/04 10:24:02;;;;;;;4.90;3.38;;;;;;;11.29;42.12;99304.03;5033191;28;20029;-59
2022/04/04 10:26:31;;;;;;;6.30;2.92;;;;;;;11.51;41.65;99309.25;5033296;28;20041;-59
2022/04/04 10:29:15;;;;;;;4.88;2.80;;;;;;;11.62;40.65;99295.63;5017407;28;20065;-59
2022/04/04 10:31:46;;;;;;;8.88;2.97;;;;;;;11.63;41.05;99299.13;5013595;28;20054;-59
2022/04/04 10:34:15;;;;;;;8.40;2.20;;;;;;;11.61;41.51;99288.69;5013240;28;20109;-59
2022/04/04 10:37:07;;;;;;;6.57;2.00;;;;;;;11.56;41.42;99285.34;5013605;28;20030;-59
2022/04/04 10:39:48;;;;;;;4.43;1.60;;;;;;;11.59;41.33;99282.59;5013578;28;20073;-58
2022/04/04 10:42:31;;;;;;;4.63;1.88;;;;;;;11.55;40.60;99268.72;5013654;28;20041;-58
2022/04/04 10:45:06;;;;;;;;;;;;;;;11.58;40.57;99258.06;5013812;28;20053;-59
2022/04/04 10:47:34;;;;;;;7.60;2.47;;;;;;;11.63;39.88;99254.38;5023341;28;19940;-58
2022/04/04 10:50:20;;;;;;;9.10;2.83;;;;;;;11.77;39.33;99262.53;5030276;28;20044;-59
2022/04/04 10:52:46;;;;;;;6.70;3.10;;;;;;;11.79;40.13;99256.28;5013383;28;20038;-59
2022/04/04 10:55:27;;;;;;;9.52;3.15;;;;;;;11.93;38.31;99260.09;5012332;28;20092;-59
2022/04/04 10:58:11;;;;;;;4.65;2.80;;;;;;;11.82;38.73;99253.50;5013228;28;20473;-59
2022/04/04 11:00:57;;;;;;;11.10;3.47;;;;;;;11.93;38.35;99260.97;5018750;28;20026;-59
2022/04/04 11:03:39;;;;;;;11.77;4.43;;;;;;;11.77;38.73;99225.72;5031414;28;20042;-58
2022/04/04 11:09:18;;;;;;;14.02;5.97;;;;;;;12.03;38.62;99217.50;5016931;28;20044;-58
2022/04/04 11:11:49;;;;;;;12.02;4.72;;;;;;;12.08;38.06;99199.69;5032012;28;20064;-58
2022/04/04 11:14:41;;;;;;;10.20;3.25;;;;;;;11.97;38.39;99209.00;5047597;28;20036;-59
2022/04/04 11:17:07;;;;;;;14.90;4.30;;;;;;;12.03;38.20;99196.44;5024103;28;20045;-58
2022/04/04 11:19:45;;;;;;;14.05;4.53;;;;;;;11.86;38.25;99201.63;5024047;28;20069;-58
2022/04/04 11:22:22;;;;;;;10.20;2.53;;;;;;;11.69;38.07;99201.47;5025160;28;20049;-58
2022/04/04 11:24:53;;;;;;;13.65;6.50;;;;;;;11.77;38.42;99183.59;5032359;28;20056;-58
2022/04/04 11:27:25;;;;;;;11.00;4.50;;;;;;;11.88;37.87;99170.81;5023695;28;20037;-58
2022/04/04 11:29:50;;;;;;;12.02;2.95;;;;;;;12.21;37.77;99168.41;5027170;28;20500;-58
2022/04/04 11:32:31;;;;;;;8.80;3.13;;;;;;;12.24;37.39;99162.13;5032963;28;20060;-59
2022/04/04 11:35:25;;;;;;;10.88;3.25;;;;;;;12.57;37.19;99162.28;5035767;28;20033;-59
2022/04/04 11:37:54;;;;;;;14.98;4.45;;;;;;;12.45;36.83;99160.25;5015682;28;20068;-57
2022/04/04 11:40:34;;;;;;;17.20;8.52;;;;;;;12.58;37.18;99140.28;5019528;28;20511;-59
2022/04/04 11:43:08;;;;;;;17.80;7.40;;;;;;;12.57;36.45;99152.59;5035429;28;20037;-59
2022/04/04 11:45:39;;;;;;;13.90;5.97;;;;;;;12.76;36.35;99133.22;5031730;28;20371;-59